sensor_id;sensor_type;location;lat;lon;timestamp;P1;durP1;ratioP1;P2;durP2;ratioP2
37267;SDS011;23154;52.542;13.362;2023-04-15T00:01:18;64.13;;;35.65;;
37267;SDS011;23154;52.542;13.362;2023-04-15T00:03:44;66.53;;;37.70;;
37267;SDS011;23154;52.542;13.362;2023-04-15T00:06:11;68.60;;;37.28;;
37267;SDS011;23154;52.542;13.362;2023-04-15T00:08:37;65.95;;;37.38;;
37267;SDS011;23154;52.542;13.362;2023-04-15T00:11:03;69.50;;;37.30;;
37267;SDS011;23154;52.542;13.362;2023-04-15T00:13:30;63.80;;;35.53;;
37267;SDS011;23154;52.542;13.362;2023-04-15T00:15:57;67.20;;;37.15;;
37267;SDS011;23154;52.542;13.362;2023-04-15T00:18:23;70.93;;;38.05;;
37267;SDS011;23154;52.542;13.362;2023-04-15T00:20:49;73.68;;;38.47;;
37267;SDS011;23154;52.542;13.362;2023-04-15T00:23:16;67.65;;;36.85;;
37267;SDS011;23154;52.542;13.362;2023-04-15T00:25:42;68.30;;;35.58;;
37267;SDS011;23154;52.542;13.362;2023-04-15T00:28:07;73.45;;;39.28;;
37267;SDS011;23154;52.542;13.362;2023-04-15T00:30:33;74.18;;;38.17;;
37267;SDS011;23154;52.542;13.362;2023-04-15T00:32:59;67.80;;;37.15;;
37267;SDS011;23154;52.542;13.362;2023-04-15T00:35:26;73.47;;;37.90;;
37267;SDS011;23154;52.542;13.362;2023-04-15T00:37:52;74.25;;;39.13;;
37267;SDS011;23154;52.542;13.362;2023-04-15T00:40:18;67.53;;;37.00;;
37267;SDS011;23154;52.542;13.362;2023-04-15T00:42:45;68.35;;;37.70;;
37267;SDS011;23154;52.542;13.362;2023-04-15T00:45:11;70.93;;;38.78;;
37267;SDS011;23154;52.542;13.362;2023-04-15T00:47:38;74.25;;;38.90;;
37267;SDS011;23154;52.542;13.362;2023-04-15T00:50:06;71.18;;;38.80;;
37267;SDS011;23154;52.542;13.362;2023-04-15T00:52:32;76.50;;;40.03;;
37267;SDS011;23154;52.542;13.362;2023-04-15T00:54:58;75.45;;;40.50;;
37267;SDS011;23154;52.542;13.362;2023-04-15T00:57:24;74.00;;;40.58;;
37267;SDS011;23154;52.542;13.362;2023-04-15T00:59:52;73.38;;;39.55;;
37267;SDS011;23154;52.542;13.362;2023-04-15T01:02:20;72.57;;;39.25;;
37267;SDS011;23154;52.542;13.362;2023-04-15T01:04:46;76.07;;;39.40;;
37267;SDS011;23154;52.542;13.362;2023-04-15T01:07:12;73.20;;;39.13;;
37267;SDS011;23154;52.542;13.362;2023-04-15T01:09:38;76.90;;;41.28;;
37267;SDS011;23154;52.542;13.362;2023-04-15T01:12:04;76.88;;;38.47;;
37267;SDS011;23154;52.542;13.362;2023-04-15T01:14:31;74.15;;;40.25;;
37267;SDS011;23154;52.542;13.362;2023-04-15T01:16:59;72.65;;;38.72;;
37267;SDS011;23154;52.542;13.362;2023-04-15T01:19:24;75.78;;;39.00;;
37267;SDS011;23154;52.542;13.362;2023-04-15T01:21:51;81.00;;;42.80;;
37267;SDS011;23154;52.542;13.362;2023-04-15T01:24:17;75.38;;;40.58;;
37267;SDS011;23154;52.542;13.362;2023-04-15T01:26:43;80.15;;;41.83;;
37267;SDS011;23154;52.542;13.362;2023-04-15T01:29:10;76.43;;;41.03;;
37267;SDS011;23154;52.542;13.362;2023-04-15T01:31:36;80.20;;;39.13;;
37267;SDS011;23154;52.542;13.362;2023-04-15T01:34:01;82.57;;;41.92;;
37267;SDS011;23154;52.542;13.362;2023-04-15T01:36:27;80.63;;;42.65;;
37267;SDS011;23154;52.542;13.362;2023-04-15T01:38:54;83.75;;;41.65;;
37267;SDS011;23154;52.542;13.362;2023-04-15T01:41:24;74.90;;;39.45;;
37267;SDS011;23154;52.542;13.362;2023-04-15T01:43:51;81.03;;;41.72;;
37267;SDS011;23154;52.542;13.362;2023-04-15T01:46:17;79.47;;;41.28;;
37267;SDS011;23154;52.542;13.362;2023-04-15T01:48:43;77.07;;;40.13;;
37267;SDS011;23154;52.542;13.362;2023-04-15T01:51:08;79.75;;;40.97;;
37267;SDS011;23154;52.542;13.362;2023-04-15T01:53:34;82.10;;;42.08;;
37267;SDS011;23154;52.542;13.362;2023-04-15T01:55:59;80.20;;;40.72;;
37267;SDS011;23154;52.542;13.362;2023-04-15T01:58:25;77.05;;;40.80;;
37267;SDS011;23154;52.542;13.362;2023-04-15T02:00:51;78.40;;;40.40;;
37267;SDS011;23154;52.542;13.362;2023-04-15T02:03:16;81.45;;;40.78;;
37267;SDS011;23154;52.542;13.362;2023-04-15T02:05:42;76.90;;;39.90;;
37267;SDS011;23154;52.542;13.362;2023-04-15T02:08:08;81.18;;;41.97;;
37267;SDS011;23154;52.542;13.362;2023-04-15T02:10:33;79.13;;;40.80;;
37267;SDS011;23154;52.542;13.362;2023-04-15T02:12:59;81.43;;;42.15;;
37267;SDS011;23154;52.542;13.362;2023-04-15T02:15:25;77.38;;;39.45;;
37267;SDS011;23154;52.542;13.362;2023-04-15T02:17:51;82.50;;;40.03;;
37267;SDS011;23154;52.542;13.362;2023-04-15T02:20:19;76.22;;;39.08;;
37267;SDS011;23154;52.542;13.362;2023-04-15T02:22:45;81.80;;;40.15;;
37267;SDS011;23154;52.542;13.362;2023-04-15T02:25:12;81.78;;;39.72;;
37267;SDS011;23154;52.542;13.362;2023-04-15T02:27:38;76.13;;;39.85;;
37267;SDS011;23154;52.542;13.362;2023-04-15T02:30:04;81.60;;;40.35;;
37267;SDS011;23154;52.542;13.362;2023-04-15T02:32:31;78.55;;;40.88;;
37267;SDS011;23154;52.542;13.362;2023-04-15T02:35:01;78.30;;;40.75;;
37267;SDS011;23154;52.542;13.362;2023-04-15T02:37:31;77.25;;;39.88;;
37267;SDS011;23154;52.542;13.362;2023-04-15T02:39:56;77.93;;;40.42;;
37267;SDS011;23154;52.542;13.362;2023-04-15T02:42:22;82.53;;;42.03;;
37267;SDS011;23154;52.542;13.362;2023-04-15T02:44:51;78.90;;;41.17;;
37267;SDS011;23154;52.542;13.362;2023-04-15T02:47:18;77.13;;;39.38;;
37267;SDS011;23154;52.542;13.362;2023-04-15T02:49:44;81.90;;;41.53;;
37267;SDS011;23154;52.542;13.362;2023-04-15T02:52:10;76.38;;;38.38;;
37267;SDS011;23154;52.542;13.362;2023-04-15T02:54:35;81.88;;;41.28;;
37267;SDS011;23154;52.542;13.362;2023-04-15T02:57:01;75.03;;;38.45;;
37267;SDS011;23154;52.542;13.362;2023-04-15T02:59:26;77.38;;;38.97;;
37267;SDS011;23154;52.542;13.362;2023-04-15T03:01:52;78.82;;;39.13;;
37267;SDS011;23154;52.542;13.362;2023-04-15T03:04:19;75.43;;;38.60;;
37267;SDS011;23154;52.542;13.362;2023-04-15T03:06:44;75.68;;;39.92;;
37267;SDS011;23154;52.542;13.362;2023-04-15T03:09:10;80.93;;;39.45;;
37267;SDS011;23154;52.542;13.362;2023-04-15T03:11:36;75.30;;;38.50;;
37267;SDS011;23154;52.542;13.362;2023-04-15T03:14:04;74.35;;;38.88;;
37267;SDS011;23154;52.542;13.362;2023-04-15T03:16:30;76.22;;;39.67;;
37267;SDS011;23154;52.542;13.362;2023-04-15T03:18:55;70.28;;;38.65;;
37267;SDS011;23154;52.542;13.362;2023-04-15T03:21:21;82.22;;;39.20;;
37267;SDS011;23154;52.542;13.362;2023-04-15T03:23:47;73.40;;;40.05;;
37267;SDS011;23154;52.542;13.362;2023-04-15T03:26:23;75.95;;;39.13;;
37267;SDS011;23154;52.542;13.362;2023-04-15T03:28:52;74.78;;;37.83;;
37267;SDS011;23154;52.542;13.362;2023-04-15T03:31:18;73.22;;;40.00;;
37267;SDS011;23154;52.542;13.362;2023-04-15T03:33:44;72.97;;;38.13;;
37267;SDS011;23154;52.542;13.362;2023-04-15T03:36:10;74.13;;;39.00;;
37267;SDS011;23154;52.542;13.362;2023-04-15T03:38:35;70.55;;;36.85;;
37267;SDS011;23154;52.542;13.362;2023-04-15T03:41:01;69.18;;;37.33;;
37267;SDS011;23154;52.542;13.362;2023-04-15T03:43:26;72.03;;;36.28;;
37267;SDS011;23154;52.542;13.362;2023-04-15T03:45:52;76.30;;;38.10;;
37267;SDS011;23154;52.542;13.362;2023-04-15T03:48:18;65.13;;;34.90;;
37267;SDS011;23154;52.542;13.362;2023-04-15T03:50:43;68.43;;;35.63;;
37267;SDS011;23154;52.542;13.362;2023-04-15T03:53:09;67.55;;;36.72;;
37267;SDS011;23154;52.542;13.362;2023-04-15T03:55:35;70.72;;;36.20;;
37267;SDS011;23154;52.542;13.362;2023-04-15T03:58:00;65.68;;;35.58;;
37267;SDS011;23154;52.542;13.362;2023-04-15T04:00:26;68.07;;;36.28;;
37267;SDS011;23154;52.542;13.362;2023-04-15T04:02:52;68.30;;;35.78;;
37267;SDS011;23154;52.542;13.362;2023-04-15T04:05:17;72.38;;;36.92;;
37267;SDS011;23154;52.542;13.362;2023-04-15T04:07:43;69.10;;;35.47;;
37267;SDS011;23154;52.542;13.362;2023-04-15T04:10:09;65.22;;;35.35;;
37267;SDS011;23154;52.542;13.362;2023-04-15T04:12:34;68.75;;;36.80;;
37267;SDS011;23154;52.542;13.362;2023-04-15T04:15:00;66.80;;;36.30;;
37267;SDS011;23154;52.542;13.362;2023-04-15T04:17:26;61.05;;;34.60;;
37267;SDS011;23154;52.542;13.362;2023-04-15T04:19:51;67.05;;;35.17;;
37267;SDS011;23154;52.542;13.362;2023-04-15T04:22:20;64.97;;;33.55;;
37267;SDS011;23154;52.542;13.362;2023-04-15T04:24:48;65.18;;;36.20;;
37267;SDS011;23154;52.542;13.362;2023-04-15T04:27:13;64.82;;;34.70;;
37267;SDS011;23154;52.542;13.362;2023-04-15T04:29:39;65.03;;;35.20;;
37267;SDS011;23154;52.542;13.362;2023-04-15T04:32:05;70.65;;;36.40;;
37267;SDS011;23154;52.542;13.362;2023-04-15T04:34:31;59.47;;;34.15;;
37267;SDS011;23154;52.542;13.362;2023-04-15T04:36:57;65.75;;;34.13;;
37267;SDS011;23154;52.542;13.362;2023-04-15T04:39:22;65.22;;;35.55;;
37267;SDS011;23154;52.542;13.362;2023-04-15T04:41:48;63.05;;;34.00;;
37267;SDS011;23154;52.542;13.362;2023-04-15T04:44:16;61.78;;;32.08;;
37267;SDS011;23154;52.542;13.362;2023-04-15T04:46:42;59.22;;;32.90;;
37267;SDS011;23154;52.542;13.362;2023-04-15T04:49:07;66.57;;;34.50;;
37267;SDS011;23154;52.542;13.362;2023-04-15T04:51:33;59.90;;;33.40;;
37267;SDS011;23154;52.542;13.362;2023-04-15T04:53:58;59.40;;;32.75;;
37267;SDS011;23154;52.542;13.362;2023-04-15T04:56:24;59.13;;;31.90;;
37267;SDS011;23154;52.542;13.362;2023-04-15T04:58:50;61.72;;;33.00;;
37267;SDS011;23154;52.542;13.362;2023-04-15T05:01:15;58.10;;;31.92;;
37267;SDS011;23154;52.542;13.362;2023-04-15T05:03:41;58.00;;;32.45;;
37267;SDS011;23154;52.542;13.362;2023-04-15T05:06:07;59.42;;;32.75;;
37267;SDS011;23154;52.542;13.362;2023-04-15T05:08:33;55.38;;;32.67;;
37267;SDS011;23154;52.542;13.362;2023-04-15T05:10:58;55.85;;;32.15;;
37267;SDS011;23154;52.542;13.362;2023-04-15T05:13:24;53.97;;;30.67;;
37267;SDS011;23154;52.542;13.362;2023-04-15T05:15:50;50.95;;;29.52;;
37267;SDS011;23154;52.542;13.362;2023-04-15T05:18:15;51.17;;;28.83;;
37267;SDS011;23154;52.542;13.362;2023-04-15T05:20:41;49.95;;;29.75;;
37267;SDS011;23154;52.542;13.362;2023-04-15T05:23:06;52.55;;;29.95;;
37267;SDS011;23154;52.542;13.362;2023-04-15T05:25:32;50.35;;;29.73;;
37267;SDS011;23154;52.542;13.362;2023-04-15T05:27:58;53.08;;;30.20;;
37267;SDS011;23154;52.542;13.362;2023-04-15T05:30:24;48.63;;;27.88;;
37267;SDS011;23154;52.542;13.362;2023-04-15T05:32:50;49.78;;;28.67;;
37267;SDS011;23154;52.542;13.362;2023-04-15T05:35:16;48.72;;;27.60;;
37267;SDS011;23154;52.542;13.362;2023-04-15T05:37:42;44.85;;;26.42;;
37267;SDS011;23154;52.542;13.362;2023-04-15T05:40:07;43.08;;;25.73;;
37267;SDS011;23154;52.542;13.362;2023-04-15T05:42:34;50.08;;;26.75;;
37267;SDS011;23154;52.542;13.362;2023-04-15T05:45:00;46.40;;;27.55;;
37267;SDS011;23154;52.542;13.362;2023-04-15T05:47:29;43.65;;;26.52;;
37267;SDS011;23154;52.542;13.362;2023-04-15T05:49:55;44.45;;;26.27;;
37267;SDS011;23154;52.542;13.362;2023-04-15T05:52:23;46.22;;;25.63;;
37267;SDS011;23154;52.542;13.362;2023-04-15T05:54:48;42.17;;;26.40;;
37267;SDS011;23154;52.542;13.362;2023-04-15T05:57:14;44.20;;;27.02;;
37267;SDS011;23154;52.542;13.362;2023-04-15T05:59:40;42.03;;;25.20;;
37267;SDS011;23154;52.542;13.362;2023-04-15T06:02:08;45.95;;;27.23;;
37267;SDS011;23154;52.542;13.362;2023-04-15T06:04:34;45.25;;;26.13;;
37267;SDS011;23154;52.542;13.362;2023-04-15T06:07:01;40.95;;;24.17;;
37267;SDS011;23154;52.542;13.362;2023-04-15T06:09:26;43.13;;;24.95;;
37267;SDS011;23154;52.542;13.362;2023-04-15T06:11:53;42.42;;;23.92;;
37267;SDS011;23154;52.542;13.362;2023-04-15T06:14:18;38.28;;;22.67;;
37267;SDS011;23154;52.542;13.362;2023-04-15T06:16:44;39.47;;;21.85;;
37267;SDS011;23154;52.542;13.362;2023-04-15T06:19:10;38.90;;;22.50;;
37267;SDS011;23154;52.542;13.362;2023-04-15T06:21:36;37.83;;;22.17;;
37267;SDS011;23154;52.542;13.362;2023-04-15T06:24:02;35.25;;;20.92;;
37267;SDS011;23154;52.542;13.362;2023-04-15T06:26:28;35.65;;;20.58;;
37267;SDS011;23154;52.542;13.362;2023-04-15T06:28:53;38.08;;;21.45;;
37267;SDS011;23154;52.542;13.362;2023-04-15T06:31:19;36.00;;;20.83;;
37267;SDS011;23154;52.542;13.362;2023-04-15T06:33:45;33.22;;;19.40;;
37267;SDS011;23154;52.542;13.362;2023-04-15T06:36:11;35.65;;;19.77;;
37267;SDS011;23154;52.542;13.362;2023-04-15T06:38:36;34.42;;;19.95;;
37267;SDS011;23154;52.542;13.362;2023-04-15T06:41:02;33.28;;;18.35;;
37267;SDS011;23154;52.542;13.362;2023-04-15T06:43:28;32.45;;;18.08;;
37267;SDS011;23154;52.542;13.362;2023-04-15T06:45:54;32.53;;;17.58;;
37267;SDS011;23154;52.542;13.362;2023-04-15T06:48:20;30.83;;;16.98;;
37267;SDS011;23154;52.542;13.362;2023-04-15T06:50:46;30.48;;;16.55;;
37267;SDS011;23154;52.542;13.362;2023-04-15T06:53:13;27.60;;;15.88;;
37267;SDS011;23154;52.542;13.362;2023-04-15T06:55:39;28.42;;;16.08;;
37267;SDS011;23154;52.542;13.362;2023-04-15T06:58:06;29.85;;;15.35;;
37267;SDS011;23154;52.542;13.362;2023-04-15T07:00:32;28.10;;;14.23;;
37267;SDS011;23154;52.542;13.362;2023-04-15T07:02:58;27.75;;;14.20;;
37267;SDS011;23154;52.542;13.362;2023-04-15T07:05:27;26.60;;;14.82;;
37267;SDS011;23154;52.542;13.362;2023-04-15T07:07:53;24.70;;;13.38;;
37267;SDS011;23154;52.542;13.362;2023-04-15T07:10:19;26.50;;;13.18;;
37267;SDS011;23154;52.542;13.362;2023-04-15T07:12:45;28.20;;;14.00;;
37267;SDS011;23154;52.542;13.362;2023-04-15T07:15:11;25.13;;;13.65;;
37267;SDS011;23154;52.542;13.362;2023-04-15T07:17:37;24.50;;;13.88;;
37267;SDS011;23154;52.542;13.362;2023-04-15T07:20:03;24.08;;;12.40;;
37267;SDS011;23154;52.542;13.362;2023-04-15T07:22:29;23.35;;;12.65;;
37267;SDS011;23154;52.542;13.362;2023-04-15T07:24:55;23.17;;;13.20;;
37267;SDS011;23154;52.542;13.362;2023-04-15T07:27:20;26.38;;;12.20;;
37267;SDS011;23154;52.542;13.362;2023-04-15T07:29:46;24.80;;;12.77;;
37267;SDS011;23154;52.542;13.362;2023-04-15T07:32:12;23.35;;;13.32;;
37267;SDS011;23154;52.542;13.362;2023-04-15T07:34:38;25.38;;;13.07;;
37267;SDS011;23154;52.542;13.362;2023-04-15T07:37:03;26.98;;;13.63;;
37267;SDS011;23154;52.542;13.362;2023-04-15T07:39:29;25.17;;;13.35;;
37267;SDS011;23154;52.542;13.362;2023-04-15T07:41:55;27.77;;;14.75;;
37267;SDS011;23154;52.542;13.362;2023-04-15T07:44:20;26.73;;;12.95;;
37267;SDS011;23154;52.542;13.362;2023-04-15T07:46:46;25.80;;;13.85;;
37267;SDS011;23154;52.542;13.362;2023-04-15T07:49:12;27.58;;;15.07;;
37267;SDS011;23154;52.542;13.362;2023-04-15T07:51:38;26.50;;;14.48;;
37267;SDS011;23154;52.542;13.362;2023-04-15T07:54:04;25.95;;;14.88;;
37267;SDS011;23154;52.542;13.362;2023-04-15T07:56:29;26.52;;;14.98;;
37267;SDS011;23154;52.542;13.362;2023-04-15T07:58:55;27.20;;;14.52;;
37267;SDS011;23154;52.542;13.362;2023-04-15T08:01:20;25.63;;;13.93;;
37267;SDS011;23154;52.542;13.362;2023-04-15T08:03:46;26.33;;;14.80;;
37267;SDS011;23154;52.542;13.362;2023-04-15T08:06:12;26.05;;;14.30;;
37267;SDS011;23154;52.542;13.362;2023-04-15T08:08:38;27.50;;;14.95;;
37267;SDS011;23154;52.542;13.362;2023-04-15T08:11:04;30.52;;;14.32;;
37267;SDS011;23154;52.542;13.362;2023-04-15T08:13:29;38.92;;;21.65;;
37267;SDS011;23154;52.542;13.362;2023-04-15T08:18:43;28.00;;;14.70;;
37267;SDS011;23154;52.542;13.362;2023-04-15T08:21:09;29.00;;;15.65;;
37267;SDS011;23154;52.542;13.362;2023-04-15T08:23:35;31.88;;;18.42;;
37267;SDS011;23154;52.542;13.362;2023-04-15T08:26:01;32.08;;;16.52;;
37267;SDS011;23154;52.542;13.362;2023-04-15T08:28:27;25.80;;;15.75;;
37267;SDS011;23154;52.542;13.362;2023-04-15T08:30:53;26.75;;;13.93;;
37267;SDS011;23154;52.542;13.362;2023-04-15T08:33:18;27.17;;;14.70;;
37267;SDS011;23154;52.542;13.362;2023-04-15T08:35:45;25.40;;;14.52;;
37267;SDS011;23154;52.542;13.362;2023-04-15T08:38:11;25.80;;;14.90;;
37267;SDS011;23154;52.542;13.362;2023-04-15T08:40:41;25.50;;;14.50;;
37267;SDS011;23154;52.542;13.362;2023-04-15T08:43:08;26.88;;;15.02;;
37267;SDS011;23154;52.542;13.362;2023-04-15T08:45:40;32.85;;;19.40;;
37267;SDS011;23154;52.542;13.362;2023-04-15T08:48:08;50.88;;;27.80;;
37267;SDS011;23154;52.542;13.362;2023-04-15T08:50:38;32.42;;;17.40;;
37267;SDS011;23154;52.542;13.362;2023-04-15T08:53:04;44.42;;;24.27;;
37267;SDS011;23154;52.542;13.362;2023-04-15T08:55:32;33.70;;;17.20;;
37267;SDS011;23154;52.542;13.362;2023-04-15T08:58:00;54.45;;;32.47;;
37267;SDS011;23154;52.542;13.362;2023-04-15T09:00:29;26.65;;;15.45;;
37267;SDS011;23154;52.542;13.362;2023-04-15T09:02:57;28.63;;;16.35;;
37267;SDS011;23154;52.542;13.362;2023-04-15T09:05:23;29.17;;;16.20;;
37267;SDS011;23154;52.542;13.362;2023-04-15T09:07:50;26.95;;;15.55;;
37267;SDS011;23154;52.542;13.362;2023-04-15T09:10:15;28.73;;;15.73;;
37267;SDS011;23154;52.542;13.362;2023-04-15T09:12:41;26.25;;;15.20;;
37267;SDS011;23154;52.542;13.362;2023-04-15T09:15:08;27.17;;;15.90;;
37267;SDS011;23154;52.542;13.362;2023-04-15T09:17:41;24.58;;;14.35;;
37267;SDS011;23154;52.542;13.362;2023-04-15T09:20:08;25.70;;;15.02;;
37267;SDS011;23154;52.542;13.362;2023-04-15T09:22:41;24.92;;;13.93;;
37267;SDS011;23154;52.542;13.362;2023-04-15T09:27:52;26.75;;;15.55;;
37267;SDS011;23154;52.542;13.362;2023-04-15T09:30:20;26.77;;;15.55;;
37267;SDS011;23154;52.542;13.362;2023-04-15T09:32:48;30.50;;;16.50;;
37267;SDS011;23154;52.542;13.362;2023-04-15T09:35:17;31.63;;;15.85;;
37267;SDS011;23154;52.542;13.362;2023-04-15T09:37:44;26.35;;;15.25;;
37267;SDS011;23154;52.542;13.362;2023-04-15T09:40:10;30.98;;;15.43;;
37267;SDS011;23154;52.542;13.362;2023-04-15T09:42:36;26.80;;;14.73;;
37267;SDS011;23154;52.542;13.362;2023-04-15T09:45:17;26.70;;;14.98;;
37267;SDS011;23154;52.542;13.362;2023-04-15T09:47:44;25.13;;;13.48;;
37267;SDS011;23154;52.542;13.362;2023-04-15T09:50:10;26.20;;;14.88;;
37267;SDS011;23154;52.542;13.362;2023-04-15T09:52:40;26.02;;;15.07;;
37267;SDS011;23154;52.542;13.362;2023-04-15T09:55:09;24.35;;;14.20;;
37267;SDS011;23154;52.542;13.362;2023-04-15T09:57:36;25.73;;;14.93;;
37267;SDS011;23154;52.542;13.362;2023-04-15T10:00:03;24.88;;;14.35;;
37267;SDS011;23154;52.542;13.362;2023-04-15T10:02:35;25.52;;;14.82;;
37267;SDS011;23154;52.542;13.362;2023-04-15T10:05:01;25.23;;;15.57;;
37267;SDS011;23154;52.542;13.362;2023-04-15T10:07:28;25.42;;;14.55;;
37267;SDS011;23154;52.542;13.362;2023-04-15T10:09:54;24.73;;;14.68;;
37267;SDS011;23154;52.542;13.362;2023-04-15T10:12:21;26.48;;;15.55;;
37267;SDS011;23154;52.542;13.362;2023-04-15T10:14:47;26.05;;;15.45;;
37267;SDS011;23154;52.542;13.362;2023-04-15T10:17:22;27.65;;;15.30;;
37267;SDS011;23154;52.542;13.362;2023-04-15T10:22:18;25.88;;;15.52;;
37267;SDS011;23154;52.542;13.362;2023-04-15T10:24:45;27.20;;;14.30;;
37267;SDS011;23154;52.542;13.362;2023-04-15T10:27:12;26.50;;;15.30;;
37267;SDS011;23154;52.542;13.362;2023-04-15T10:29:39;29.13;;;15.23;;
37267;SDS011;23154;52.542;13.362;2023-04-15T10:32:07;25.90;;;15.65;;
37267;SDS011;23154;52.542;13.362;2023-04-15T10:34:34;26.98;;;15.75;;
37267;SDS011;23154;52.542;13.362;2023-04-15T10:37:01;27.10;;;16.02;;
37267;SDS011;23154;52.542;13.362;2023-04-15T10:39:37;29.45;;;15.95;;
37267;SDS011;23154;52.542;13.362;2023-04-15T10:47:05;27.08;;;15.85;;
37267;SDS011;23154;52.542;13.362;2023-04-15T10:49:41;27.05;;;14.70;;
37267;SDS011;23154;52.542;13.362;2023-04-15T10:52:14;25.08;;;14.85;;
37267;SDS011;23154;52.542;13.362;2023-04-15T10:54:42;29.17;;;16.05;;
37267;SDS011;23154;52.542;13.362;2023-04-15T10:57:12;24.63;;;14.57;;
37267;SDS011;23154;52.542;13.362;2023-04-15T11:00:00;26.17;;;15.50;;
37267;SDS011;23154;52.542;13.362;2023-04-15T11:05:17;28.45;;;16.45;;
37267;SDS011;23154;52.542;13.362;2023-04-15T11:12:50;26.25;;;15.52;;
37267;SDS011;23154;52.542;13.362;2023-04-15T11:18:13;29.13;;;17.85;;
37267;SDS011;23154;52.542;13.362;2023-04-15T11:20:42;28.35;;;14.88;;
37267;SDS011;23154;52.542;13.362;2023-04-15T11:23:12;47.38;;;25.10;;
37267;SDS011;23154;52.542;13.362;2023-04-15T11:25:38;28.67;;;17.45;;
37267;SDS011;23154;52.542;13.362;2023-04-15T11:28:05;37.33;;;20.77;;
37267;SDS011;23154;52.542;13.362;2023-04-15T11:30:35;26.83;;;15.73;;
37267;SDS011;23154;52.542;13.362;2023-04-15T11:33:05;26.17;;;14.93;;
37267;SDS011;23154;52.542;13.362;2023-04-15T11:35:36;24.45;;;13.88;;
37267;SDS011;23154;52.542;13.362;2023-04-15T11:38:05;27.08;;;15.52;;
37267;SDS011;23154;52.542;13.362;2023-04-15T11:40:34;29.23;;;15.55;;
37267;SDS011;23154;52.542;13.362;2023-04-15T11:43:07;27.00;;;16.05;;
37267;SDS011;23154;52.542;13.362;2023-04-15T11:45:47;27.95;;;15.23;;
37267;SDS011;23154;52.542;13.362;2023-04-15T11:48:28;27.73;;;14.65;;
37267;SDS011;23154;52.542;13.362;2023-04-15T11:50:57;24.30;;;14.63;;
37267;SDS011;23154;52.542;13.362;2023-04-15T11:53:35;27.65;;;14.60;;
37267;SDS011;23154;52.542;13.362;2023-04-15T11:56:01;26.92;;;14.55;;
37267;SDS011;23154;52.542;13.362;2023-04-15T11:58:28;25.23;;;14.18;;
37267;SDS011;23154;52.542;13.362;2023-04-15T12:00:55;23.08;;;13.77;;
37267;SDS011;23154;52.542;13.362;2023-04-15T12:03:26;27.92;;;14.23;;
37267;SDS011;23154;52.542;13.362;2023-04-15T12:08:57;25.13;;;14.45;;
37267;SDS011;23154;52.542;13.362;2023-04-15T12:13:56;26.88;;;15.45;;
37267;SDS011;23154;52.542;13.362;2023-04-15T12:16:23;26.02;;;15.13;;
37267;SDS011;23154;52.542;13.362;2023-04-15T12:18:50;28.30;;;15.88;;
37267;SDS011;23154;52.542;13.362;2023-04-15T12:21:27;28.85;;;15.50;;
37267;SDS011;23154;52.542;13.362;2023-04-15T12:24:00;32.28;;;16.23;;
37267;SDS011;23154;52.542;13.362;2023-04-15T12:26:33;25.15;;;14.50;;
37267;SDS011;23154;52.542;13.362;2023-04-15T12:29:01;26.75;;;15.15;;
37267;SDS011;23154;52.542;13.362;2023-04-15T12:31:27;27.67;;;14.50;;
37267;SDS011;23154;52.542;13.362;2023-04-15T12:33:57;24.40;;;14.35;;
37267;SDS011;23154;52.542;13.362;2023-04-15T12:36:23;25.92;;;14.68;;
37267;SDS011;23154;52.542;13.362;2023-04-15T12:38:49;22.65;;;12.80;;
37267;SDS011;23154;52.542;13.362;2023-04-15T12:41:16;25.50;;;14.57;;
37267;SDS011;23154;52.542;13.362;2023-04-15T12:43:43;24.40;;;13.52;;
37267;SDS011;23154;52.542;13.362;2023-04-15T12:46:10;24.27;;;13.38;;
37267;SDS011;23154;52.542;13.362;2023-04-15T12:48:37;22.15;;;11.90;;
37267;SDS011;23154;52.542;13.362;2023-04-15T12:51:04;24.30;;;12.93;;
37267;SDS011;23154;52.542;13.362;2023-04-15T12:53:29;23.02;;;12.70;;
37267;SDS011;23154;52.542;13.362;2023-04-15T12:55:55;24.80;;;12.68;;
37267;SDS011;23154;52.542;13.362;2023-04-15T12:58:21;25.27;;;13.30;;
37267;SDS011;23154;52.542;13.362;2023-04-15T13:00:47;24.83;;;14.13;;
37267;SDS011;23154;52.542;13.362;2023-04-15T13:03:13;25.67;;;14.20;;
37267;SDS011;23154;52.542;13.362;2023-04-15T13:05:39;23.70;;;14.27;;
37267;SDS011;23154;52.542;13.362;2023-04-15T13:08:05;26.90;;;15.10;;
37267;SDS011;23154;52.542;13.362;2023-04-15T13:10:31;26.63;;;13.98;;
37267;SDS011;23154;52.542;13.362;2023-04-15T13:12:57;22.15;;;12.75;;
37267;SDS011;23154;52.542;13.362;2023-04-15T13:15:23;23.02;;;12.90;;
37267;SDS011;23154;52.542;13.362;2023-04-15T13:17:49;21.88;;;12.63;;
37267;SDS011;23154;52.542;13.362;2023-04-15T13:20:15;25.95;;;14.02;;
37267;SDS011;23154;52.542;13.362;2023-04-15T13:22:41;26.00;;;13.68;;
37267;SDS011;23154;52.542;13.362;2023-04-15T13:25:07;23.35;;;12.38;;
37267;SDS011;23154;52.542;13.362;2023-04-15T13:27:33;25.27;;;13.85;;
37267;SDS011;23154;52.542;13.362;2023-04-15T13:29:59;25.45;;;12.45;;
37267;SDS011;23154;52.542;13.362;2023-04-15T13:32:24;24.80;;;12.50;;
37267;SDS011;23154;52.542;13.362;2023-04-15T13:34:50;22.02;;;12.35;;
37267;SDS011;23154;52.542;13.362;2023-04-15T13:37:16;23.63;;;13.75;;
37267;SDS011;23154;52.542;13.362;2023-04-15T13:39:42;23.05;;;12.88;;
37267;SDS011;23154;52.542;13.362;2023-04-15T13:42:08;27.08;;;13.85;;
37267;SDS011;23154;52.542;13.362;2023-04-15T13:44:33;23.95;;;13.40;;
37267;SDS011;23154;52.542;13.362;2023-04-15T13:46:59;26.00;;;13.93;;
37267;SDS011;23154;52.542;13.362;2023-04-15T13:49:25;23.48;;;12.77;;
37267;SDS011;23154;52.542;13.362;2023-04-15T13:51:51;22.65;;;11.60;;
37267;SDS011;23154;52.542;13.362;2023-04-15T13:54:17;25.13;;;11.23;;
37267;SDS011;23154;52.542;13.362;2023-04-15T13:56:44;21.92;;;11.80;;
37267;SDS011;23154;52.542;13.362;2023-04-15T13:59:10;21.70;;;12.35;;
37267;SDS011;23154;52.542;13.362;2023-04-15T14:01:35;22.02;;;12.45;;
37267;SDS011;23154;52.542;13.362;2023-04-15T14:04:01;23.23;;;13.15;;
37267;SDS011;23154;52.542;13.362;2023-04-15T14:06:27;27.92;;;14.40;;
37267;SDS011;23154;52.542;13.362;2023-04-15T14:08:55;25.77;;;13.35;;
37267;SDS011;23154;52.542;13.362;2023-04-15T14:11:21;25.67;;;14.30;;
37267;SDS011;23154;52.542;13.362;2023-04-15T14:13:46;23.20;;;12.70;;
37267;SDS011;23154;52.542;13.362;2023-04-15T14:16:12;26.40;;;13.35;;
37267;SDS011;23154;52.542;13.362;2023-04-15T14:18:38;25.52;;;12.50;;
37267;SDS011;23154;52.542;13.362;2023-04-15T14:21:04;23.20;;;11.90;;
37267;SDS011;23154;52.542;13.362;2023-04-15T14:23:31;22.88;;;12.32;;
37267;SDS011;23154;52.542;13.362;2023-04-15T14:25:56;22.63;;;12.60;;
37267;SDS011;23154;52.542;13.362;2023-04-15T14:28:23;23.73;;;13.07;;
37267;SDS011;23154;52.542;13.362;2023-04-15T14:30:49;23.65;;;13.45;;
37267;SDS011;23154;52.542;13.362;2023-04-15T14:33:15;25.00;;;13.43;;
37267;SDS011;23154;52.542;13.362;2023-04-15T14:35:40;24.38;;;12.35;;